sensor_id;sensor_type;location;lat;lon;timestamp;pressure;altitude;pressure_sealevel;temperature;humidity
70411;BME280;57832;46.038;11.398;2023-01-28T00:02:24;96770.75;;;-2.07;100.00
70411;BME280;57832;46.038;11.398;2023-01-28T00:04:49;96774.28;;;-2.08;100.00
70411;BME280;57832;46.038;11.398;2023-01-28T00:07:16;96777.50;;;-2.06;100.00
70411;BME280;57832;46.038;11.398;2023-01-28T00:09:41;96778.16;;;-2.21;100.00
70411;BME280;57832;46.038;11.398;2023-01-28T00:12:07;96776.91;;;-2.25;100.00
70411;BME280;57832;46.038;11.398;2023-01-28T00:14:32;96771.72;;;-2.16;100.00
70411;BME280;57832;46.038;11.398;2023-01-28T00:16:58;96769.38;;;-2.43;100.00
70411;BME280;57832;46.038;11.398;2023-01-28T00:19:23;96776.00;;;-2.57;100.00
70411;BME280;57832;46.038;11.398;2023-01-28T00:21:49;96758.50;;;-2.61;100.00
70411;BME280;57832;46.038;11.398;2023-01-28T00:24:14;96751.28;;;-2.58;100.00
70411;BME280;57832;46.038;11.398;2023-01-28T00:26:40;96752.25;;;-2.50;100.00
70411;BME280;57832;46.038;11.398;2023-01-28T00:29:06;96755.47;;;-2.81;100.00
70411;BME280;57832;46.038;11.398;2023-01-28T00:31:32;96757.72;;;-3.11;100.00
70411;BME280;57832;46.038;11.398;2023-01-28T00:33:59;96755.00;;;-2.85;100.00
70411;BME280;57832;46.038;11.398;2023-01-28T00:36:25;96756.41;;;-2.58;100.00
70411;BME280;57832;46.038;11.398;2023-01-28T00:38:56;96743.41;;;-2.64;100.00
70411;BME280;57832;46.038;11.398;2023-01-28T00:41:25;96752.09;;;-2.57;100.00
70411;BME280;57832;46.038;11.398;2023-01-28T00:43:52;96747.25;;;-2.60;100.00
70411;BME280;57832;46.038;11.398;2023-01-28T00:46:18;96742.78;;;-2.58;100.00
70411;BME280;57832;46.038;11.398;2023-01-28T00:48:45;96756.59;;;-2.59;100.00
70411;BME280;57832;46.038;11.398;2023-01-28T00:51:12;96755.78;;;-2.52;100.00
70411;BME280;57832;46.038;11.398;2023-01-28T00:53:38;96762.22;;;-2.64;100.00
70411;BME280;57832;46.038;11.398;2023-01-28T00:56:06;96758.16;;;-2.50;100.00
70411;BME280;57832;46.038;11.398;2023-01-28T00:58:32;96767.16;;;-2.54;100.00
70411;BME280;57832;46.038;11.398;2023-01-28T01:01:07;96774.38;;;-2.49;100.00
70411;BME280;57832;46.038;11.398;2023-01-28T01:03:33;96775.66;;;-2.54;100.00
70411;BME280;57832;46.038;11.398;2023-01-28T01:05:59;96774.38;;;-2.58;100.00
70411;BME280;57832;46.038;11.398;2023-01-28T01:08:25;96782.09;;;-2.66;100.00
70411;BME280;57832;46.038;11.398;2023-01-28T01:11:02;96783.38;;;-2.62;100.00
70411;BME280;57832;46.038;11.398;2023-01-28T01:13:29;96783.88;;;-2.58;100.00
70411;BME280;57832;46.038;11.398;2023-01-28T01:16:14;96781.59;;;-2.61;100.00
70411;BME280;57832;46.038;11.398;2023-01-28T01:18:43;96779.38;;;-2.64;100.00
70411;BME280;57832;46.038;11.398;2023-01-28T01:21:17;96781.47;;;-2.60;100.00
70411;BME280;57832;46.038;11.398;2023-01-28T01:23:44;96792.84;;;-2.54;100.00
70411;BME280;57832;46.038;11.398;2023-01-28T01:26:10;96797.84;;;-2.61;100.00
70411;BME280;57832;46.038;11.398;2023-01-28T01:28:36;96791.56;;;-2.58;100.00
70411;BME280;57832;46.038;11.398;2023-01-28T01:31:07;96795.59;;;-2.72;100.00
70411;BME280;57832;46.038;11.398;2023-01-28T01:33:34;96792.22;;;-2.73;100.00
70411;BME280;57832;46.038;11.398;2023-01-28T01:35:59;96786.75;;;-2.61;100.00
70411;BME280;57832;46.038;11.398;2023-01-28T01:38:26;96795.13;;;-2.67;100.00
70411;BME280;57832;46.038;11.398;2023-01-28T01:40:58;96796.41;;;-2.63;100.00
70411;BME280;57832;46.038;11.398;2023-01-28T01:43:25;96792.22;;;-2.73;100.00
70411;BME280;57832;46.038;11.398;2023-01-28T01:45:56;96791.06;;;-2.54;100.00
70411;BME280;57832;46.038;11.398;2023-01-28T01:48:32;96789.63;;;-2.48;100.00
70411;BME280;57832;46.038;11.398;2023-01-28T01:51:06;96782.75;;;-2.56;100.00
70411;BME280;57832;46.038;11.398;2023-01-28T01:53:36;96789.00;;;-2.50;100.00
70411;BME280;57832;46.038;11.398;2023-01-28T01:56:08;96786.75;;;-2.45;100.00
70411;BME280;57832;46.038;11.398;2023-01-28T01:58:38;96781.91;;;-2.40;100.00
70411;BME280;57832;46.038;11.398;2023-01-28T02:01:05;96789.13;;;-2.35;100.00
70411;BME280;57832;46.038;11.398;2023-01-28T02:03:40;96787.81;;;-2.31;100.00
70411;BME280;57832;46.038;11.398;2023-01-28T02:06:12;96794.31;;;-2.60;100.00
70411;BME280;57832;46.038;11.398;2023-01-28T02:08:38;96797.50;;;-2.49;100.00
70411;BME280;57832;46.038;11.398;2023-01-28T02:11:07;96786.44;;;-2.66;100.00
70411;BME280;57832;46.038;11.398;2023-01-28T02:13:41;96794.94;;;-2.58;100.00
70411;BME280;57832;46.038;11.398;2023-01-28T02:16:09;96794.75;;;-2.40;100.00
70411;BME280;57832;46.038;11.398;2023-01-28T02:18:36;96789.25;;;-2.28;100.00
70411;BME280;57832;46.038;11.398;2023-01-28T02:26:58;96783.69;;;-2.48;100.00
70411;BME280;57832;46.038;11.398;2023-01-28T02:29:51;96782.22;;;-2.43;100.00
70411;BME280;57832;46.038;11.398;2023-01-28T02:32:50;96780.38;;;-2.09;100.00
70411;BME280;57832;46.038;11.398;2023-01-28T02:35:27;96793.72;;;-2.14;100.00
70411;BME280;57832;46.038;11.398;2023-01-28T02:38:07;96792.47;;;-2.18;100.00
70411;BME280;57832;46.038;11.398;2023-01-28T02:40:38;96798.69;;;-2.04;100.00
70411;BME280;57832;46.038;11.398;2023-01-28T02:43:43;96790.88;;;-1.79;100.00
70411;BME280;57832;46.038;11.398;2023-01-28T02:49:16;96798.28;;;-1.85;100.00
70411;BME280;57832;46.038;11.398;2023-01-28T02:59:26;96786.41;;;-2.42;100.00
70411;BME280;57832;46.038;11.398;2023-01-28T03:04:37;96793.16;;;-2.49;100.00
70411;BME280;57832;46.038;11.398;2023-01-28T03:07:07;96792.81;;;-2.38;100.00
70411;BME280;57832;46.038;11.398;2023-01-28T03:09:35;96792.69;;;-2.61;100.00
70411;BME280;57832;46.038;11.398;2023-01-28T03:12:08;96804.09;;;-2.63;100.00
70411;BME280;57832;46.038;11.398;2023-01-28T03:15:03;96803.13;;;-2.54;100.00
70411;BME280;57832;46.038;11.398;2023-01-28T03:21:04;96806.84;;;-2.65;100.00
70411;BME280;57832;46.038;11.398;2023-01-28T03:30:11;96826.03;;;-2.20;100.00
70411;BME280;57832;46.038;11.398;2023-01-28T03:32:58;96823.63;;;-2.21;100.00
70411;BME280;57832;46.038;11.398;2023-01-28T03:35:43;96824.63;;;-2.63;100.00
70411;BME280;57832;46.038;11.398;2023-01-28T03:38:28;96819.16;;;-2.36;100.00
70411;BME280;57832;46.038;11.398;2023-01-28T03:41:00;96825.75;;;-2.33;100.00
70411;BME280;57832;46.038;11.398;2023-01-28T03:43:28;96825.28;;;-2.53;100.00
70411;BME280;57832;46.038;11.398;2023-01-28T03:45:54;96828.66;;;-2.61;100.00
70411;BME280;57832;46.038;11.398;2023-01-28T03:48:23;96840.34;;;-2.91;100.00
70411;BME280;57832;46.038;11.398;2023-01-28T03:50:50;96839.69;;;-2.93;100.00
70411;BME280;57832;46.038;11.398;2023-01-28T03:53:17;96837.16;;;-2.85;100.00
70411;BME280;57832;46.038;11.398;2023-01-28T03:55:44;96837.00;;;-2.83;100.00
70411;BME280;57832;46.038;11.398;2023-01-28T03:58:11;96841.00;;;-2.64;100.00
70411;BME280;57832;46.038;11.398;2023-01-28T04:00:37;96836.00;;;-2.25;100.00
70411;BME280;57832;46.038;11.398;2023-01-28T04:03:17;96837.78;;;-2.25;100.00
70411;BME280;57832;46.038;11.398;2023-01-28T04:05:59;96833.13;;;-2.55;100.00
70411;BME280;57832;46.038;11.398;2023-01-28T04:08:25;96827.84;;;-2.53;100.00
70411;BME280;57832;46.038;11.398;2023-01-28T04:10:51;96830.41;;;-2.53;100.00
70411;BME280;57832;46.038;11.398;2023-01-28T04:13:17;96837.16;;;-2.60;100.00
70411;BME280;57832;46.038;11.398;2023-01-28T04:15:43;96838.28;;;-2.88;100.00
70411;BME280;57832;46.038;11.398;2023-01-28T04:18:09;96840.31;;;-3.16;100.00
70411;BME280;57832;46.038;11.398;2023-01-28T04:20:35;96850.88;;;-3.19;100.00
70411;BME280;57832;46.038;11.398;2023-01-28T04:23:02;96842.91;;;-3.08;100.00
70411;BME280;57832;46.038;11.398;2023-01-28T04:25:28;96850.78;;;-2.84;100.00
70411;BME280;57832;46.038;11.398;2023-01-28T04:27:54;96861.81;;;-3.09;100.00
70411;BME280;57832;46.038;11.398;2023-01-28T04:30:19;96863.13;;;-3.05;100.00
70411;BME280;57832;46.038;11.398;2023-01-28T04:32:46;96860.47;;;-3.38;100.00
70411;BME280;57832;46.038;11.398;2023-01-28T04:35:11;96867.25;;;-3.63;100.00
70411;BME280;57832;46.038;11.398;2023-01-28T04:37:40;96869.19;;;-3.65;100.00
70411;BME280;57832;46.038;11.398;2023-01-28T04:40:06;96876.34;;;-3.34;100.00
70411;BME280;57832;46.038;11.398;2023-01-28T04:42:31;96878.38;;;-3.46;100.00
70411;BME280;57832;46.038;11.398;2023-01-28T04:44:57;96877.69;;;-3.56;100.00
70411;BME280;57832;46.038;11.398;2023-01-28T04:47:22;96886.03;;;-3.62;100.00
70411;BME280;57832;46.038;11.398;2023-01-28T04:49:49;96882.59;;;-3.71;100.00
70411;BME280;57832;46.038;11.398;2023-01-28T04:52:14;96888.88;;;-3.65;100.00
70411;BME280;57832;46.038;11.398;2023-01-28T04:54:40;96895.06;;;-3.76;100.00
70411;BME280;57832;46.038;11.398;2023-01-28T04:57:06;96901.06;;;-3.67;100.00
70411;BME280;57832;46.038;11.398;2023-01-28T04:59:31;96901.03;;;-3.76;100.00
70411;BME280;57832;46.038;11.398;2023-01-28T05:01:57;96903.25;;;-3.81;100.00
70411;BME280;57832;46.038;11.398;2023-01-28T05:04:22;96903.69;;;-3.86;100.00
70411;BME280;57832;46.038;11.398;2023-01-28T05:06:49;96906.16;;;-4.02;100.00
70411;BME280;57832;46.038;11.398;2023-01-28T05:09:14;96905.75;;;-3.89;100.00
70411;BME280;57832;46.038;11.398;2023-01-28T05:11:40;96920.31;;;-3.90;100.00
70411;BME280;57832;46.038;11.398;2023-01-28T05:14:05;96913.38;;;-3.97;100.00
70411;BME280;57832;46.038;11.398;2023-01-28T05:16:31;96915.69;;;-4.12;100.00
70411;BME280;57832;46.038;11.398;2023-01-28T05:18:58;96914.63;;;-4.01;100.00
70411;BME280;57832;46.038;11.398;2023-01-28T05:21:24;96921.97;;;-4.07;100.00
70411;BME280;57832;46.038;11.398;2023-01-28T05:23:49;96919.47;;;-3.98;100.00
70411;BME280;57832;46.038;11.398;2023-01-28T05:26:15;96925.97;;;-4.04;100.00
70411;BME280;57832;46.038;11.398;2023-01-28T05:28:40;96929.53;;;-4.23;100.00
70411;BME280;57832;46.038;11.398;2023-01-28T05:31:06;96931.16;;;-4.22;100.00
70411;BME280;57832;46.038;11.398;2023-01-28T05:33:32;96938.16;;;-4.24;100.00
70411;BME280;57832;46.038;11.398;2023-01-28T05:35:57;96938.91;;;-4.32;100.00
70411;BME280;57832;46.038;11.398;2023-01-28T05:38:23;96944.84;;;-4.31;100.00
70411;BME280;57832;46.038;11.398;2023-01-28T05:40:49;96949.31;;;-4.51;100.00
70411;BME280;57832;46.038;11.398;2023-01-28T05:43:14;96958.81;;;-4.26;100.00
70411;BME280;57832;46.038;11.398;2023-01-28T05:45:40;96958.44;;;-4.31;100.00
70411;BME280;57832;46.038;11.398;2023-01-28T05:48:06;96958.84;;;-4.44;100.00
70411;BME280;57832;46.038;11.398;2023-01-28T05:50:31;96960.16;;;-4.40;100.00
70411;BME280;57832;46.038;11.398;2023-01-28T05:52:57;96960.16;;;-4.40;100.00
70411;BME280;57832;46.038;11.398;2023-01-28T05:55:22;96961.09;;;-4.41;100.00
70411;BME280;57832;46.038;11.398;2023-01-28T05:57:48;96957.72;;;-4.41;100.00
70411;BME280;57832;46.038;11.398;2023-01-28T06:00:14;96963.75;;;-4.50;100.00
70411;BME280;57832;46.038;11.398;2023-01-28T06:02:41;96966.72;;;-4.55;100.00
70411;BME280;57832;46.038;11.398;2023-01-28T06:05:07;96967.16;;;-4.42;100.00
70411;BME280;57832;46.038;11.398;2023-01-28T06:07:33;96968.47;;;-4.38;100.00
70411;BME280;57832;46.038;11.398;2023-01-28T06:09:59;96966.13;;;-4.67;100.00
70411;BME280;57832;46.038;11.398;2023-01-28T06:12:24;96968.59;;;-4.57;100.00
70411;BME280;57832;46.038;11.398;2023-01-28T06:14:50;96969.78;;;-4.70;100.00
70411;BME280;57832;46.038;11.398;2023-01-28T06:17:15;96971.53;;;-4.52;100.00
70411;BME280;57832;46.038;11.398;2023-01-28T06:19:41;96972.00;;;-4.57;100.00
70411;BME280;57832;46.038;11.398;2023-01-28T06:22:07;96973.88;;;-4.59;100.00
70411;BME280;57832;46.038;11.398;2023-01-28T06:24:32;96974.38;;;-4.73;100.00
70411;BME280;57832;46.038;11.398;2023-01-28T06:26:58;96978.88;;;-4.39;100.00
70411;BME280;57832;46.038;11.398;2023-01-28T06:29:23;96983.84;;;-4.38;100.00
70411;BME280;57832;46.038;11.398;2023-01-28T06:31:49;96991.16;;;-4.43;100.00
70411;BME280;57832;46.038;11.398;2023-01-28T06:34:15;96998.38;;;-4.56;100.00
70411;BME280;57832;46.038;11.398;2023-01-28T06:36:41;97002.81;;;-4.76;100.00
70411;BME280;57832;46.038;11.398;2023-01-28T06:39:07;97019.53;;;-4.54;100.00
70411;BME280;57832;46.038;11.398;2023-01-28T06:41:32;97023.53;;;-4.70;100.00
70411;BME280;57832;46.038;11.398;2023-01-28T06:43:58;97019.19;;;-4.87;100.00
70411;BME280;57832;46.038;11.398;2023-01-28T06:46:23;97027.25;;;-4.82;100.00
70411;BME280;57832;46.038;11.398;2023-01-28T06:48:49;97028.31;;;-4.84;100.00
70411;BME280;57832;46.038;11.398;2023-01-28T06:51:15;97029.78;;;-4.82;100.00
70411;BME280;57832;46.038;11.398;2023-01-28T06:53:41;97041.81;;;-4.64;100.00
70411;BME280;57832;46.038;11.398;2023-01-28T06:56:07;97046.19;;;-4.75;100.00
70411;BME280;57832;46.038;11.398;2023-01-28T06:58:33;97039.28;;;-4.92;100.00
70411;BME280;57832;46.038;11.398;2023-01-28T07:00:59;97038.56;;;-4.84;100.00
70411;BME280;57832;46.038;11.398;2023-01-28T07:03:25;97041.69;;;-4.91;100.00
70411;BME280;57832;46.038;11.398;2023-01-28T07:05:50;97041.88;;;-4.74;100.00
70411;BME280;57832;46.038;11.398;2023-01-28T07:08:16;97034.75;;;-4.98;100.00
70411;BME280;57832;46.038;11.398;2023-01-28T07:10:42;97044.34;;;-4.82;100.00
70411;BME280;57832;46.038;11.398;2023-01-28T07:13:08;97041.53;;;-4.61;100.00
70411;BME280;57832;46.038;11.398;2023-01-28T07:15:34;97038.69;;;-4.58;100.00
70411;BME280;57832;46.038;11.398;2023-01-28T07:18:00;97036.41;;;-4.61;100.00
70411;BME280;57832;46.038;11.398;2023-01-28T07:20:25;97046.31;;;-4.66;100.00
70411;BME280;57832;46.038;11.398;2023-01-28T07:22:51;97050.97;;;-4.62;100.00
70411;BME280;57832;46.038;11.398;2023-01-28T07:25:17;97046.31;;;-4.66;100.00
70411;BME280;57832;46.038;11.398;2023-01-28T07:27:47;97045.47;;;-4.67;100.00
70411;BME280;57832;46.038;11.398;2023-01-28T07:30:13;97045.09;;;-4.72;100.00
70411;BME280;57832;46.038;11.398;2023-01-28T07:32:39;97049.13;;;-4.70;100.00
70411;BME280;57832;46.038;11.398;2023-01-28T07:35:05;97053.75;;;-4.55;100.00
70411;BME280;57832;46.038;11.398;2023-01-28T07:37:30;97055.16;;;-4.61;100.00
70411;BME280;57832;46.038;11.398;2023-01-28T07:39:56;97055.09;;;-4.51;100.00
70411;BME280;57832;46.038;11.398;2023-01-28T07:42:21;97069.22;;;-4.47;100.00
70411;BME280;57832;46.038;11.398;2023-01-28T07:44:47;97065.47;;;-4.53;100.00
70411;BME280;57832;46.038;11.398;2023-01-28T07:47:14;97068.59;;;-4.59;100.00
70411;BME280;57832;46.038;11.398;2023-01-28T07:49:39;97071.28;;;-4.50;100.00
70411;BME280;57832;46.038;11.398;2023-01-28T07:52:06;97068.78;;;-4.42;100.00
70411;BME280;57832;46.038;11.398;2023-01-28T07:54:32;97069.31;;;-4.94;100.00
70411;BME280;57832;46.038;11.398;2023-01-28T07:56:57;97072.03;;;-5.53;100.00
70411;BME280;57832;46.038;11.398;2023-01-28T07:59:23;97077.41;;;-5.56;100.00
70411;BME280;57832;46.038;11.398;2023-01-28T08:01:48;97082.47;;;-5.27;100.00
70411;BME280;57832;46.038;11.398;2023-01-28T08:04:14;97077.66;;;-4.92;100.00
70411;BME280;57832;46.038;11.398;2023-01-28T08:06:39;97079.56;;;-4.94;100.00
70411;BME280;57832;46.038;11.398;2023-01-28T08:09:06;97084.63;;;-4.57;100.00
70411;BME280;57832;46.038;11.398;2023-01-28T08:11:33;97085.81;;;-4.51;100.00
70411;BME280;57832;46.038;11.398;2023-01-28T08:14:00;97077.97;;;-4.49;100.00
70411;BME280;57832;46.038;11.398;2023-01-28T08:16:26;97083.34;;;-4.43;100.00
70411;BME280;57832;46.038;11.398;2023-01-28T08:18:52;97089.94;;;-4.40;100.00
70411;BME280;57832;46.038;11.398;2023-01-28T08:21:18;97089.28;;;-4.24;100.00
70411;BME280;57832;46.038;11.398;2023-01-28T08:23:43;97090.56;;;-4.10;100.00
70411;BME280;57832;46.038;11.398;2023-01-28T08:26:09;97087.63;;;-3.97;100.00
70411;BME280;57832;46.038;11.398;2023-01-28T08:28:34;97100.38;;;-4.24;100.00
70411;BME280;57832;46.038;11.398;2023-01-28T08:31:00;97095.91;;;-4.04;100.00
70411;BME280;57832;46.038;11.398;2023-01-28T08:33:26;97099.78;;;-3.99;100.00
70411;BME280;57832;46.038;11.398;2023-01-28T08:35:52;97100.16;;;-4.12;100.00
70411;BME280;57832;46.038;11.398;2023-01-28T08:38:17;97095.53;;;-4.09;100.00
70411;BME280;57832;46.038;11.398;2023-01-28T08:40:45;97098.81;;;-4.16;100.00
70411;BME280;57832;46.038;11.398;2023-01-28T08:43:11;97101.03;;;-4.04;100.00
70411;BME280;57832;46.038;11.398;2023-01-28T08:45:38;97093.41;;;-3.95;100.00
70411;BME280;57832;46.038;11.398;2023-01-28T08:48:05;97096.19;;;-4.25;100.00
70411;BME280;57832;46.038;11.398;2023-01-28T08:50:34;97102.09;;;-4.24;100.00
70411;BME280;57832;46.038;11.398;2023-01-28T08:53:03;97104.59;;;-4.32;100.00
70411;BME280;57832;46.038;11.398;2023-01-28T08:55:30;97103.88;;;-4.07;100.00
70411;BME280;57832;46.038;11.398;2023-01-28T08:57:55;97110.00;;;-4.35;100.00
70411;BME280;57832;46.038;11.398;2023-01-28T09:00:21;97114.03;;;-4.33;100.00
70411;BME280;57832;46.038;11.398;2023-01-28T09:02:50;97114.66;;;-4.03;100.00
70411;BME280;57832;46.038;11.398;2023-01-28T09:05:17;97118.69;;;-3.46;100.00
70411;BME280;57832;46.038;11.398;2023-01-28T09:07:43;97116.91;;;-2.93;100.00
70411;BME280;57832;46.038;11.398;2023-01-28T09:10:10;97117.34;;;-2.80;100.00
70411;BME280;57832;46.038;11.398;2023-01-28T09:12:36;97116.72;;;-3.26;100.00
70411;BME280;57832;46.038;11.398;2023-01-28T09:15:01;97126.47;;;-2.77;100.00
70411;BME280;57832;46.038;11.398;2023-01-28T09:17:27;97119.88;;;-2.45;100.00
70411;BME280;57832;46.038;11.398;2023-01-28T09:19:52;97129.81;;;-1.99;100.00
70411;BME280;57832;46.038;11.398;2023-01-28T09:22:18;97122.44;;;-1.86;100.00
70411;BME280;57832;46.038;11.398;2023-01-28T09:24:44;97127.25;;;-1.99;100.00
70411;BME280;57832;46.038;11.398;2023-01-28T09:27:09;97119.38;;;-1.07;100.00
70411;BME280;57832;46.038;11.398;2023-01-28T09:29:35;97111.53;;;-1.30;100.00
70411;BME280;57832;46.038;11.398;2023-01-28T09:32:02;97107.25;;;-0.82;100.00
70411;BME280;57832;46.038;11.398;2023-01-28T09:34:28;97104.13;;;-0.61;100.00
70411;BME280;57832;46.038;11.398;2023-01-28T09:36:53;97103.03;;;-0.75;100.00
70411;BME280;57832;46.038;11.398;2023-01-28T09:39:19;97101.75;;;-0.79;100.00
70411;BME280;57832;46.038;11.398;2023-01-28T09:44:58;97094.75;;;-0.54;100.00
70411;BME280;57832;46.038;11.398;2023-01-28T09:47:35;97094.13;;;-0.56;100.00
70411;BME280;57832;46.038;11.398;2023-01-28T09:50:17;97096.84;;;-0.49;100.00
70411;BME280;57832;46.038;11.398;2023-01-28T09:52:44;97096.16;;;-0.43;100.00
70411;BME280;57832;46.038;11.398;2023-01-28T09:55:18;97098.84;;;-0.68;100.00
70411;BME280;57832;46.038;11.398;2023-01-28T09:57:51;97107.06;;;-0.32;100.00
70411;BME280;57832;46.038;11.398;2023-01-28T10:00:22;97109.31;;;0.02;100.00
70411;BME280;57832;46.038;11.398;2023-01-28T10:16:42;97107.72;;;1.30;100.00
70411;BME280;57832;46.038;11.398;2023-01-28T10:19:49;97096.31;;;0.95;100.00
70411;BME280;57832;46.038;11.398;2023-01-28T10:22:22;97092.69;;;1.04;100.00
70411;BME280;57832;46.038;11.398;2023-01-28T10:24:55;97092.66;;;1.49;100.00
70411;BME280;57832;46.038;11.398;2023-01-28T10:27:29;97090.41;;;2.62;100.00
70411;BME280;57832;46.038;11.398;2023-01-28T10:29:57;97076.25;;;6.85;100.00
70411;BME280;57832;46.038;11.398;2023-01-28T10:32:33;97072.09;;;3.89;100.00
70411;BME280;57832;46.038;11.398;2023-01-28T10:34:58;97079.78;;;2.29;100.00
70411;BME280;57832;46.038;11.398;2023-01-28T10:37:26;97078.22;;;2.34;100.00
70411;BME280;57832;46.038;11.398;2023-01-28T10:39:56;97070.94;;;2.73;100.00
70411;BME280;57832;46.038;11.398;2023-01-28T10:42:28;97077.44;;;3.19;100.00
70411;BME280;57832;46.038;11.398;2023-01-28T10:45:00;97066.63;;;3.15;100.00
70411;BME280;57832;46.038;11.398;2023-01-28T10:47:33;97061.53;;;2.94;100.00
70411;BME280;57832;46.038;11.398;2023-01-28T10:50:04;97060.09;;;2.84;100.00
70411;BME280;57832;46.038;11.398;2023-01-28T10:52:29;97055.13;;;2.33;100.00
70411;BME280;57832;46.038;11.398;2023-01-28T10:55:03;97044.31;;;2.79;100.00
70411;BME280;57832;46.038;11.398;2023-01-28T10:57:32;97042.69;;;2.78;100.00
70411;BME280;57832;46.038;11.398;2023-01-28T11:02:49;97026.59;;;2.83;100.00
70411;BME280;57832;46.038;11.398;2023-01-28T11:05:18;97031.41;;;2.58;100.00
70411;BME280;57832;46.038;11.398;2023-01-28T11:07:45;97031.66;;;2.98;100.00
70411;BME280;57832;46.038;11.398;2023-01-28T11:10:29;97027.69;;;3.02;100.00
70411;BME280;57832;46.038;11.398;2023-01-28T11:12:58;97023.50;;;3.01;100.00
70411;BME280;57832;46.038;11.398;2023-01-28T11:15:25;97016.31;;;3.45;100.00
70411;BME280;57832;46.038;11.398;2023-01-28T11:17:57;97005.66;;;3.81;100.00
70411;BME280;57832;46.038;11.398;2023-01-28T11:20:26;97008.69;;;4.39;100.00
70411;BME280;57832;46.038;11.398;2023-01-28T11:22:53;97007.19;;;5.87;100.00
70411;BME280;57832;46.038;11.398;2023-01-28T11:25:33;97003.00;;;5.47;100.00
70411;BME280;57832;46.038;11.398;2023-01-28T11:28:05;97001.91;;;6.32;100.00
70411;BME280;57832;46.038;11.398;2023-01-28T11:30:37;96995.03;;;7.98;100.00
70411;BME280;57832;46.038;11.398;2023-01-28T11:33:18;96988.69;;;9.13;100.00
70411;BME280;57832;46.038;11.398;2023-01-28T11:35:56;96986.31;;;12.36;100.00
70411;BME280;57832;46.038;11.398;2023-01-28T11:38:23;96973.81;;;12.54;72.06
70411;BME280;57832;46.038;11.398;2023-01-28T11:40:50;96974.19;;;13.26;59.43
70411;BME280;57832;46.038;11.398;2023-01-28T11:43:18;96982.31;;;9.95;63.30
70411;BME280;57832;46.038;11.398;2023-01-28T11:51:03;96959.59;;;9.38;69.26
70411;BME280;57832;46.038;11.398;2023-01-28T11:53:56;96958.25;;;8.35;77.26
70411;BME280;57832;46.038;11.398;2023-01-28T11:59:49;96941.41;;;8.08;56.15
70411;BME280;57832;46.038;11.398;2023-01-28T12:05:32;96942.22;;;7.54;82.80
70411;BME280;57832;46.038;11.398;2023-01-28T12:11:29;96918.59;;;11.57;56.29
70411;BME280;57832;46.038;11.398;2023-01-28T12:17:31;96901.25;;;12.20;40.82
70411;BME280;57832;46.038;11.398;2023-01-28T12:22:50;96904.88;;;10.78;47.88
70411;BME280;57832;46.038;11.398;2023-01-28T12:25:38;96900.16;;;9.22;57.63
70411;BME280;57832;46.038;11.398;2023-01-28T12:28:25;96891.41;;;10.91;44.64
70411;BME280;57832;46.038;11.398;2023-01-28T12:33:54;96881.81;;;10.58;44.92
70411;BME280;57832;46.038;11.398;2023-01-28T12:36:27;96886.31;;;9.55;48.40
70411;BME280;57832;46.038;11.398;2023-01-28T12:39:25;96882.34;;;10.20;44.12
70411;BME280;57832;46.038;11.398;2023-01-28T12:42:26;96879.19;;;9.50;45.06
70411;BME280;57832;46.038;11.398;2023-01-28T12:45:11;96868.13;;;10.33;39.64
70411;BME280;57832;46.038;11.398;2023-01-28T12:47:40;96858.75;;;10.20;44.62
70411;BME280;57832;46.038;11.398;2023-01-28T12:50:30;96860.75;;;10.30;44.76
70411;BME280;57832;46.038;11.398;2023-01-28T12:53:04;96856.03;;;10.32;39.07
70411;BME280;57832;46.038;11.398;2023-01-28T12:55:46;96865.09;;;10.42;39.25
70411;BME280;57832;46.038;11.398;2023-01-28T12:58:23;96864.03;;;11.36;36.63
70411;BME280;57832;46.038;11.398;2023-01-28T13:01:00;96860.28;;;11.92;37.05
70411;BME280;57832;46.038;11.398;2023-01-28T13:03:48;96856.81;;;11.81;36.09
70411;BME280;57832;46.038;11.398;2023-01-28T13:06:25;96868.50;;;11.09;36.41
70411;BME280;57832;46.038;11.398;2023-01-28T13:08:57;96861.22;;;12.08;36.97
70411;BME280;57832;46.038;11.398;2023-01-28T13:11:29;96865.06;;;11.63;35.60
70411;BME280;57832;46.038;11.398;2023-01-28T13:13:57;96859.53;;;15.92;31.27
70411;BME280;57832;46.038;11.398;2023-01-28T13:16:22;96862.09;;;15.28;29.46
70411;BME280;57832;46.038;11.398;2023-01-28T13:18:48;96859.50;;;11.59;33.53
70411;BME280;57832;46.038;11.398;2023-01-28T13:21:27;96861.97;;;10.45;35.53
70411;BME280;57832;46.038;11.398;2023-01-28T13:24:06;96861.63;;;10.58;35.00
70411;BME280;57832;46.038;11.398;2023-01-28T13:26:43;96855.03;;;10.16;39.67
70411;BME280;57832;46.038;11.398;2023-01-28T13:31:52;96864.81;;;9.07;48.87
70411;BME280;57832;46.038;11.398;2023-01-28T13:34:35;96872.69;;;8.66;53.25
70411;BME280;57832;46.038;11.398;2023-01-28T13:40:25;96883.28;;;8.36;60.97
70411;BME280;57832;46.038;11.398;2023-01-28T13:43:05;96890.66;;;7.92;59.24
70411;BME280;57832;46.038;11.398;2023-01-28T13:45:32;96896.09;;;8.14;61.78
70411;BME280;57832;46.038;11.398;2023-01-28T13:48:14;96891.16;;;7.70;71.08
70411;BME280;57832;46.038;11.398;2023-01-28T13:50:44;96889.03;;;7.79;80.81
70411;BME280;57832;46.038;11.398;2023-01-28T13:56:25;96886.44;;;7.36;99.72
70411;BME280;57832;46.038;11.398;2023-01-28T14:07:42;96894.16;;;6.27;100.00
70411;BME280;57832;46.038;11.398;2023-01-28T14:18:34;96905.16;;;5.46;100.00
70411;BME280;57832;46.038;11.398;2023-01-28T14:21:02;96914.81;;;5.39;100.00
70411;BME280;57832;46.038;11.398;2023-01-28T14:23:33;96909.44;;;5.34;100.00
70411;BME280;57832;46.038;11.398;2023-01-28T14:26:25;96908.50;;;5.22;100.00
70411;BME280;57832;46.038;11.398;2023-01-28T14:31:39;96918.69;;;4.78;100.00
70411;BME280;57832;46.038;11.398;2023-01-28T14:34:33;96919.88;;;4.82;100.00
70411;BME280;57832;46.038;11.398;2023-01-28T14:37:05;96920.66;;;4.76;100.00
70411;BME280;57832;46.038;11.398;2023-01-28T14:39:42;96922.91;;;4.65;100.00